Time;durP1;ratioP1;P1;durP2;ratioP2;P2;SDS_P1;SDS_P2;PMS_P1;PMS_P2;Temp;Humidity;BMP_temperature;BMP_pressure;BME280_temperature;BME280_humidity;BME280_pressure;Samples;Min_cycle;Max_cycle;Signal;HPM_P1;HPM_P2
2023/09/11 00:04:15;;;;;;;8.03;7.43;;;21.80;99.90;;;;;;10223600;29;20668;-81
2023/09/11 00:09:17;;;;;;;8.73;7.93;;;21.80;99.90;;;;;;10314086;23;20244;-81
2023/09/11 00:14:20;;;;;;;8.57;7.70;;;21.70;99.90;;;;;;10345634;28;20228;-81
2023/09/11 00:19:22;;;;;;;8.70;8.00;;;21.70;99.90;;;;;;10366630;28;20199;-81
2023/09/11 00:24:25;;;;;;;8.60;7.90;;;21.70;99.90;;;;;;10384252;28;20195;-81
2023/09/11 00:29:28;;;;;;;9.20;8.47;;;21.60;99.90;;;;;;10385242;28;20258;-81
2023/09/11 00:34:30;;;;;;;8.83;8.03;;;21.60;99.90;;;;;;10365183;28;20225;-81
2023/09/11 00:39:32;;;;;;;8.97;8.27;;;21.60;99.90;;;;;;10367153;28;20216;-81
2023/09/11 00:44:36;;;;;;;8.77;7.97;;;21.50;99.90;;;;;;10352195;28;20219;-81
2023/09/11 00:49:39;;;;;;;7.83;7.10;;;21.50;99.90;;;;;;10352514;28;20216;-81
2023/09/11 00:54:41;;;;;;;8.53;7.87;;;21.50;99.90;;;;;;10333545;28;20247;-81
2023/09/11 00:59:45;;;;;;;7.93;7.33;;;21.40;99.90;;;;;;10357194;28;20246;-81
2023/09/11 01:04:49;;;;;;;9.03;8.33;;;21.50;99.90;;;;;;10368897;28;20290;-81
2023/09/11 01:09:51;;;;;;;9.20;8.30;;;21.40;99.90;;;;;;10350460;28;20287;-81
2023/09/11 01:14:54;;;;;;;9.60;8.60;;;21.40;99.90;;;;;;10351298;28;20243;-81
2023/09/11 01:20:10;;;;;;;8.93;8.20;;;21.30;99.90;;;;;;10342022;28;20642;-82
2023/09/11 01:25:33;;;;;;;9.13;8.33;;;21.30;99.90;;;;;;10373836;28;20191;-81
2023/09/11 01:30:39;;;;;;;9.37;8.57;;;21.20;99.90;;;;;;10373584;28;20215;-80
2023/09/11 01:35:41;;;;;;;8.80;7.53;;;21.20;99.90;;;;;;10354646;28;20242;-81
2023/09/11 01:40:46;;;;;;;8.93;8.10;;;21.20;99.90;;;;;;10345334;28;20747;-81
2023/09/11 01:45:50;;;;;;;9.10;8.40;;;21.20;99.90;;;;;;10335311;28;20287;-81
2023/09/11 01:50:52;;;;;;;8.37;7.67;;;21.20;99.90;;;;;;10339116;28;20228;-81
2023/09/11 01:55:56;;;;;;;10.33;9.43;;;21.10;99.90;;;;;;10337649;28;20242;-81
2023/09/11 02:01:00;;;;;;;10.83;9.07;;;21.10;99.90;;;;;;10326221;28;20228;-81
2023/09/11 02:06:03;;;;;;;10.40;9.30;;;21.10;99.90;;;;;;10356318;28;20226;-81
2023/09/11 02:11:07;;;;;;;10.07;9.20;;;21.00;99.90;;;;;;10339697;28;20239;-81
2023/09/11 02:16:10;;;;;;;9.20;8.50;;;21.00;99.90;;;;;;10364699;28;20216;-81
2023/09/11 02:21:12;;;;;;;10.03;9.23;;;21.00;99.90;;;;;;10341277;28;20212;-81
2023/09/11 02:26:14;;;;;;;10.57;8.60;;;20.90;99.90;;;;;;10318525;28;20199;-81
2023/09/11 02:31:19;;;;;;;9.70;8.80;;;20.90;99.90;;;;;;10350608;28;20223;-81
2023/09/11 02:36:21;;;;;;;10.30;9.30;;;20.90;99.90;;;;;;10339276;28;20607;-78
2023/09/11 02:41:24;;;;;;;9.90;9.10;;;20.80;99.90;;;;;;10331400;28;20227;-79
2023/09/11 02:46:28;;;;;;;9.77;8.97;;;20.80;99.90;;;;;;10344843;28;20726;-78
2023/09/11 02:51:30;;;;;;;9.63;8.83;;;20.80;99.90;;;;;;10339152;28;20223;-79
2023/09/11 02:56:34;;;;;;;9.50;8.70;;;20.70;99.90;;;;;;10340881;28;20244;-78
2023/09/11 03:01:37;;;;;;;10.87;9.20;;;20.80;99.90;;;;;;10332745;28;20227;-78
2023/09/11 03:06:41;;;;;;;9.60;8.80;;;20.70;99.90;;;;;;10377071;28;20204;-77
2023/09/11 03:11:44;;;;;;;9.97;9.10;;;20.70;99.90;;;;;;10345096;28;20232;-79
2023/09/11 03:16:47;;;;;;;9.90;9.07;;;20.70;99.90;;;;;;10362399;28;20211;-78
2023/09/11 03:21:49;;;;;;;9.83;9.03;;;20.70;99.90;;;;;;10354181;28;20228;-79
2023/09/11 03:26:52;;;;;;;10.03;9.03;;;20.70;99.90;;;;;;10343345;28;20327;-78
2023/09/11 03:31:57;;;;;;;10.27;9.43;;;20.60;99.90;;;;;;10339074;28;20224;-79
2023/09/11 03:36:59;;;;;;;10.03;9.23;;;20.60;99.90;;;;;;10342544;28;20223;-79
2023/09/11 03:42:02;;;;;;;8.97;8.27;;;20.50;99.90;;;;;;10355641;28;20563;-78
2023/09/11 03:47:06;;;;;;;9.63;8.83;;;20.50;99.90;;;;;;10336619;28;20192;-78
2023/09/11 03:52:08;;;;;;;8.57;7.77;;;20.50;99.90;;;;;;10340828;28;20219;-78
2023/09/11 03:57:10;;;;;;;9.23;8.40;;;20.40;99.90;;;;;;10358680;28;20218;-79
2023/09/11 04:02:14;;;;;;;10.87;8.43;;;20.30;99.90;;;;;;10340590;28;20219;-79
2023/09/11 04:07:16;;;;;;;9.60;8.70;;;20.30;99.90;;;;;;10354882;28;20275;-78
2023/09/11 04:12:18;;;;;;;9.77;8.90;;;20.30;99.90;;;;;;10337441;28;20230;-78
2023/09/11 04:17:21;;;;;;;10.47;9.20;;;20.20;99.90;;;;;;10334505;28;20273;-79
2023/09/11 04:22:24;;;;;;;9.63;8.93;;;20.20;99.90;;;;;;10355580;28;20219;-78
2023/09/11 04:27:26;;;;;;;10.13;9.33;;;20.20;99.90;;;;;;10350457;28;20211;-78
2023/09/11 04:32:30;;;;;;;11.33;10.20;;;20.20;99.90;;;;;;10347373;28;20278;-78
2023/09/11 04:37:32;;;;;;;10.23;9.13;;;20.10;99.90;;;;;;10336562;28;20707;-78
2023/09/11 04:42:35;;;;;;;11.60;10.13;;;20.10;99.90;;;;;;10356030;28;20220;-78
2023/09/11 04:47:38;;;;;;;11.10;10.20;;;20.10;99.90;;;;;;10344942;28;20196;-79
2023/09/11 04:52:41;;;;;;;10.90;10.00;;;20.10;99.90;;;;;;10353180;28;20315;-79
2023/09/11 04:57:44;;;;;;;11.53;10.53;;;20.10;99.90;;;;;;10328820;28;20721;-79
2023/09/11 05:02:48;;;;;;;10.67;9.77;;;20.10;99.90;;;;;;10334013;28;20220;-79
2023/09/11 05:07:51;;;;;;;10.87;9.60;;;20.00;99.90;;;;;;10339946;28;20196;-79
2023/09/11 05:12:53;;;;;;;10.17;9.10;;;20.00;99.90;;;;;;10347682;28;20227;-79
2023/09/11 05:17:56;;;;;;;11.17;10.17;;;20.00;99.90;;;;;;10349177;28;20710;-79
2023/09/11 05:22:59;;;;;;;10.83;9.90;;;20.10;99.90;;;;;;10373102;28;20223;-79
2023/09/11 05:28:01;;;;;;;10.30;9.40;;;20.10;99.90;;;;;;10365768;28;20201;-79
2023/09/11 05:33:04;;;;;;;10.60;9.70;;;20.10;99.90;;;;;;10373564;28;20285;-80
2023/09/11 05:38:07;;;;;;;10.60;9.70;;;20.10;99.90;;;;;;10358996;28;20224;-80
2023/09/11 05:43:11;;;;;;;11.47;10.47;;;20.10;99.90;;;;;;10374254;28;20223;-80
2023/09/11 05:48:15;;;;;;;10.13;9.10;;;20.10;99.90;;;;;;10332020;28;20207;-80
2023/09/11 05:53:17;;;;;;;9.40;8.60;;;20.10;99.90;;;;;;10342141;28;20228;-80
2023/09/11 05:58:19;;;;;;;10.43;9.63;;;20.20;99.90;;;;;;10345400;28;20223;-80
2023/09/11 06:03:23;;;;;;;9.10;8.20;;;20.20;99.90;;;;;;10360921;28;20215;-80
2023/09/11 06:08:25;;;;;;;11.10;10.20;;;20.20;99.90;;;;;;10363955;28;20636;-80
2023/09/11 06:13:27;;;;;;;9.87;9.07;;;20.30;99.90;;;;;;10339801;28;1066383;-79
2023/09/11 06:18:30;;;;;;;10.83;9.90;;;20.30;99.90;;;;;;10327528;28;20215;-80
2023/09/11 06:23:33;;;;;;;10.63;9.40;;;20.40;99.90;;;;;;10377022;28;20219;-80
2023/09/11 06:28:35;;;;;;;10.60;9.60;;;20.40;99.90;;;;;;10327689;28;20203;-80
2023/09/11 06:33:38;;;;;;;11.40;10.30;;;20.50;99.90;;;;;;10357859;28;20222;-80
2023/09/11 06:38:40;;;;;;;10.17;9.00;;;20.50;99.90;;;;;;10379779;28;20330;-79
2023/09/11 06:43:43;;;;;;;11.53;10.50;;;20.60;99.90;;;;;;10352690;28;20229;-79
2023/09/11 06:48:46;;;;;;;11.07;9.83;;;20.60;99.90;;;;;;10374021;28;20210;-80
2023/09/11 06:53:49;;;;;;;11.07;10.00;;;20.70;99.90;;;;;;10350812;28;20219;-80
2023/09/11 06:58:51;;;;;;;11.07;9.97;;;20.70;99.90;;;;;;10378054;28;20235;-80
2023/09/11 07:03:54;;;;;;;12.77;11.30;;;20.70;99.90;;;;;;10387296;28;20273;-80
2023/09/11 07:08:56;;;;;;;13.43;10.50;;;20.80;99.90;;;;;;10350051;28;20196;-80
2023/09/11 07:13:58;;;;;;;10.33;9.43;;;20.90;99.90;;;;;;10371584;28;20227;-80
2023/09/11 07:19:02;;;;;;;11.50;10.50;;;20.90;99.90;;;;;;10367074;28;20241;-79
2023/09/11 07:24:04;;;;;;;11.10;10.20;;;21.00;99.90;;;;;;10349077;28;20239;-80
2023/09/11 07:29:06;;;;;;;10.17;9.13;;;21.10;99.90;;;;;;10398636;28;20211;-80
2023/09/11 07:34:10;;;;;;;13.50;9.70;;;21.20;99.90;;;;;;10400357;28;20227;-78
2023/09/11 07:39:12;;;;;;;10.73;9.63;;;21.30;99.90;;;;;;10364587;28;20364;-80
2023/09/11 07:44:14;;;;;;;11.43;10.33;;;21.40;99.90;;;;;;10324768;28;20219;-80
2023/09/11 07:49:17;;;;;;;10.20;9.30;;;21.40;99.90;;;;;;10347620;28;20530;-80
2023/09/11 07:54:21;;;;;;;12.70;11.60;;;21.50;99.90;;;;;;10406525;28;20203;-80
2023/09/11 07:59:23;;;;;;;15.93;11.63;;;21.60;99.90;;;;;;10341956;28;20224;-80
2023/09/11 08:04:26;;;;;;;12.20;10.93;;;21.70;99.90;;;;;;10325150;28;20227;-79
2023/09/11 08:09:29;;;;;;;13.77;12.47;;;21.80;99.90;;;;;;10383428;28;20223;-80
2023/09/11 08:14:31;;;;;;;11.83;10.73;;;21.90;99.90;;;;;;10331660;28;20207;-80
2023/09/11 08:19:35;;;;;;;13.27;12.10;;;22.00;99.90;;;;;;10382943;28;20223;-80
2023/09/11 08:24:37;;;;;;;11.47;10.53;;;22.10;99.90;;;;;;10340156;28;20196;-80
2023/09/11 08:29:40;;;;;;;16.10;11.43;;;22.20;99.90;;;;;;10355394;28;20223;-80
2023/09/11 08:34:43;;;;;;;13.90;10.77;;;22.30;99.90;;;;;;10384685;28;20195;-80
2023/09/11 08:39:45;;;;;;;13.73;12.27;;;22.40;99.90;;;;;;10319643;28;20223;-79
2023/09/11 08:44:47;;;;;;;11.43;10.33;;;22.50;99.90;;;;;;10374616;28;20212;-80
2023/09/11 08:49:53;;;;;;;12.13;10.90;;;22.60;99.90;;;;;;10342953;28;20231;-79
2023/09/11 08:54:59;;;;;;;13.03;11.77;;;22.60;99.90;;;;;;10379705;28;20290;-80
2023/09/11 09:00:07;;;;;;;12.20;11.00;;;22.70;99.90;;;;;;10349024;28;20228;-80
2023/09/11 09:05:11;;;;;;;11.00;9.97;;;22.80;99.90;;;;;;10381728;28;20195;-80
2023/09/11 09:10:14;;;;;;;11.27;10.30;;;22.90;99.90;;;;;;10371160;28;20229;-80
2023/09/11 09:15:18;;;;;;;12.10;10.97;;;23.00;99.90;;;;;;10348642;28;20256;-81
2023/09/11 09:20:23;;;;;;;12.00;10.90;;;23.10;99.90;;;;;;10381294;28;20337;-80
2023/09/11 09:25:26;;;;;;;10.00;9.20;;;23.20;99.90;;;;;;10348712;28;20200;-79
2023/09/11 09:30:30;;;;;;;12.30;10.27;;;23.30;99.90;;;;;;10368128;28;20293;-81
2023/09/11 09:35:34;;;;;;;11.77;10.67;;;23.40;99.90;;;;;;10348851;28;20226;-81
2023/09/11 09:40:38;;;;;;;9.97;8.97;;;23.50;99.90;;;;;;10362569;28;20219;-81
2023/09/11 09:45:42;;;;;;;10.60;9.57;;;23.70;99.90;;;;;;10362170;28;20203;-81
2023/09/11 09:50:57;;;;;;;14.87;9.63;;;23.90;99.90;;;;;;10383723;28;20215;-80
2023/09/11 09:56:03;;;;;;;8.77;7.87;;;24.30;99.90;;;;;;10347616;28;20250;-80
2023/09/11 10:01:06;;;;;;;8.93;8.10;;;24.70;99.90;;;;;;10347612;28;20236;-81
2023/09/11 10:06:11;;;;;;;13.20;8.53;;;25.10;99.90;;;;;;10369710;28;20222;-80
2023/09/11 10:11:27;;;;;;;8.33;7.53;;;25.10;99.90;;;;;;10382997;28;20223;-80
2023/09/11 10:16:31;;;;;;;10.50;9.10;;;25.10;99.90;;;;;;10351882;28;20215;-81
2023/09/11 10:21:34;;;;;;;9.87;8.90;;;24.90;99.90;;;;;;10325186;28;20246;-81
2023/09/11 10:26:45;;;;;;;9.97;8.57;;;24.80;99.90;;;;;;10367048;28;20644;-80
2023/09/11 10:31:52;;;;;;;8.40;7.57;;;24.80;99.90;;;;;;10368788;28;20318;-81
2023/09/11 10:36:59;;;;;;;10.80;8.50;;;24.80;99.90;;;;;;10319303;28;20223;-81
2023/09/11 10:42:01;;;;;;;9.97;8.93;;;24.80;99.90;;;;;;10338912;28;20220;-80
2023/09/11 10:47:05;;;;;;;8.67;7.77;;;24.70;99.90;;;;;;10370148;28;20198;-80
2023/09/11 10:52:09;;;;;;;11.43;10.20;;;24.70;99.90;;;;;;10375838;28;20219;-81
2023/09/11 10:57:13;;;;;;;11.63;9.10;;;24.80;99.90;;;;;;10345583;28;20251;-81
2023/09/11 11:02:15;;;;;;;9.07;7.33;;;24.80;99.90;;;;;;10370230;28;20712;-80
2023/09/11 11:07:20;;;;;;;9.07;8.17;;;24.80;99.90;;;;;;10372111;28;20278;-80
2023/09/11 11:12:32;;;;;;;8.37;7.40;;;24.60;99.90;;;;;;10337019;28;20716;-80
2023/09/11 11:17:38;;;;;;;8.50;7.70;;;24.70;99.90;;;;;;10373359;28;20242;-80
2023/09/11 11:22:42;;;;;;;8.73;7.70;;;24.60;99.90;;;;;;10338034;28;20727;-80
2023/09/11 11:27:46;;;;;;;8.13;7.43;;;24.60;99.90;;;;;;10357516;28;20219;-80
2023/09/11 11:32:49;;;;;;;10.17;8.63;;;24.60;99.90;;;;;;10384995;28;20242;-80
2023/09/11 11:37:53;;;;;;;8.07;7.37;;;24.60;99.90;;;;;;10358895;28;20219;-81
2023/09/11 11:42:56;;;;;;;9.03;8.13;;;24.60;99.90;;;;;;10351178;28;20223;-81
2023/09/11 11:47:58;;;;;;;7.90;7.20;;;24.60;99.90;;;;;;10363880;28;20200;-80
2023/09/11 11:53:06;;;;;;;8.83;8.03;;;24.70;99.90;;;;;;10387345;28;20848;-81
2023/09/11 11:58:09;;;;;;;8.80;7.43;;;24.80;99.90;;;;;;10375363;28;20307;-80
2023/09/11 12:03:11;;;;;;;8.97;7.90;;;24.90;99.90;;;;;;10380714;28;20219;-81
2023/09/11 12:08:15;;;;;;;9.33;7.43;;;24.90;99.10;;;;;;10363670;28;20669;-81
2023/09/11 12:13:17;;;;;;;7.20;6.60;;;25.10;98.90;;;;;;10348058;28;20223;-81
2023/09/11 12:18:20;;;;;;;7.30;6.70;;;25.10;98.90;;;;;;10379248;28;20775;-81
2023/09/11 12:23:23;;;;;;;13.07;7.80;;;25.10;99.50;;;;;;10376086;28;20231;-80
2023/09/11 12:28:26;;;;;;;8.30;7.00;;;25.10;98.90;;;;;;10353521;28;20290;-80
2023/09/11 12:33:32;;;;;;;7.90;7.20;;;25.20;98.60;;;;;;10372390;28;20273;-81
2023/09/11 12:38:36;;;;;;;8.10;7.30;;;25.30;98.50;;;;;;10349928;28;20220;-81
2023/09/11 12:43:38;;;;;;;10.47;7.30;;;25.30;98.70;;;;;;10382244;28;20215;-81
2023/09/11 12:48:42;;;;;;;7.53;6.90;;;25.40;98.50;;;;;;10340658;28;20203;-80
2023/09/11 12:53:47;;;;;;;10.60;8.17;;;25.40;98.50;;;;;;10378242;28;20223;-81
2023/09/11 12:58:50;;;;;;;9.00;7.50;;;25.30;99.50;;;;;;10343174;28;20225;-81
2023/09/11 13:03:52;;;;;;;9.83;6.57;;;25.30;99.00;;;;;;10371033;28;20246;-80
2023/09/11 13:08:57;;;;;;;7.50;6.80;;;25.40;97.90;;;;;;10376109;28;20204;-81
2023/09/11 13:13:59;;;;;;;7.83;7.13;;;25.50;97.50;;;;;;10352411;28;20227;-81
2023/09/11 13:19:01;;;;;;;7.03;6.43;;;25.60;97.30;;;;;;10362948;28;20273;-81
2023/09/11 13:24:05;;;;;;;6.37;5.80;;;25.70;97.40;;;;;;10380926;28;20709;-81
2023/09/11 13:29:08;;;;;;;7.70;6.77;;;25.70;98.10;;;;;;10351450;28;20200;-80
2023/09/11 13:34:10;;;;;;;9.00;6.47;;;25.70;98.50;;;;;;10374528;28;20207;-81
2023/09/11 13:39:14;;;;;;;7.70;6.97;;;25.70;96.60;;;;;;10335683;28;20260;-81
2023/09/11 13:44:16;;;;;;;7.40;6.70;;;25.70;97.00;;;;;;10362541;28;20207;-81
2023/09/11 13:49:18;;;;;;;13.43;7.97;;;25.70;97.80;;;;;;10355861;28;20200;-82
2023/09/11 13:54:22;;;;;;;7.10;5.87;;;25.70;98.10;;;;;;10377139;28;20199;-81
2023/09/11 13:59:24;;;;;;;10.63;6.90;;;25.80;96.70;;;;;;10354149;28;20228;-81
2023/09/11 14:04:26;;;;;;;9.03;6.93;;;25.90;97.80;;;;;;10349145;28;20204;-80
2023/09/11 14:09:30;;;;;;;7.90;6.40;;;25.80;97.70;;;;;;10376189;28;20210;-81
2023/09/11 14:14:32;;;;;;;7.10;6.37;;;25.90;97.00;;;;;;10348115;28;20195;-81
2023/09/11 14:19:34;;;;;;;6.97;6.27;;;25.90;97.40;;;;;;10355087;28;20220;-81
2023/09/11 14:24:40;;;;;;;7.07;6.40;;;25.90;96.40;;;;;;10346938;28;20192;-81
2023/09/11 14:29:42;;;;;;;9.67;6.83;;;25.90;97.70;;;;;;10347426;28;20231;-80
2023/09/11 14:34:44;;;;;;;8.30;6.60;;;25.80;98.10;;;;;;10341477;28;20210;-81
2023/09/11 14:39:48;;;;;;;10.20;6.67;;;25.70;98.70;;;;;;10358826;28;20783;-81
2023/09/11 14:44:50;;;;;;;6.90;5.93;;;25.60;98.10;;;;;;10348977;28;20208;-81
2023/09/11 14:49:53;;;;;;;7.63;6.40;;;25.70;98.00;;;;;;10350514;28;20242;-81
2023/09/11 14:54:57;;;;;;;6.57;5.90;;;26.00;97.60;;;;;;10349207;28;20204;-81
2023/09/11 14:59:59;;;;;;;7.10;6.50;;;26.20;97.00;;;;;;10359033;28;20318;-80
2023/09/11 15:05:01;;;;;;;7.57;6.77;;;26.30;96.70;;;;;;10358384;28;20298;-81
2023/09/11 15:10:05;;;;;;;7.43;6.73;;;26.20;96.60;;;;;;10358853;28;20220;-81
2023/09/11 15:15:08;;;;;;;8.33;6.80;;;26.20;96.10;;;;;;10356700;28;20195;-81
2023/09/11 15:20:11;;;;;;;6.20;5.67;;;26.20;95.90;;;;;;10370415;28;20234;-80
2023/09/11 15:25:14;;;;;;;10.40;7.00;;;26.20;96.60;;;;;;10362586;28;20207;-81
2023/09/11 15:30:16;;;;;;;8.17;7.30;;;26.00;98.00;;;;;;10370609;28;20759;-80
2023/09/11 15:35:19;;;;;;;11.27;6.83;;;25.90;98.60;;;;;;10361764;28;20214;-81
2023/09/11 15:40:22;;;;;;;8.27;7.53;;;25.70;99.50;;;;;;10341954;28;20303;-81
2023/09/11 15:45:24;;;;;;;7.67;5.87;;;25.50;99.90;;;;;;10368666;28;20203;-81
2023/09/11 15:50:26;;;;;;;9.17;6.70;;;25.40;98.90;;;;;;10362330;28;20212;-81
2023/09/11 15:55:30;;;;;;;10.67;7.33;;;25.40;99.00;;;;;;10371524;28;20254;-81
2023/09/11 16:00:32;;;;;;;7.57;6.77;;;25.40;99.00;;;;;;10368407;28;20250;-81
2023/09/11 16:05:34;;;;;;;7.10;6.30;;;25.40;98.00;;;;;;10373111;28;20210;-80
2023/09/11 16:10:38;;;;;;;6.63;6.00;;;25.50;99.00;;;;;;10379517;28;20223;-81
2023/09/11 16:15:41;;;;;;;11.80;7.90;;;25.50;98.60;;;;;;10361709;28;20704;-81
2023/09/11 16:20:43;;;;;;;7.90;7.10;;;25.50;98.40;;;;;;10354211;28;20239;-81
2023/09/11 16:25:46;;;;;;;11.03;7.33;;;25.50;98.90;;;;;;10370653;28;20627;-81
2023/09/11 16:30:48;;;;;;;8.53;7.33;;;25.50;98.80;;;;;;10378937;28;20215;-81
2023/09/11 16:35:51;;;;;;;7.93;6.00;;;25.50;99.00;;;;;;10366217;28;20258;-81
2023/09/11 16:40:54;;;;;;;9.10;7.03;;;25.40;99.20;;;;;;10351173;28;20224;-81
2023/09/11 16:45:56;;;;;;;7.00;6.40;;;25.30;99.90;;;;;;10370445;28;20217;-81
2023/09/11 16:50:58;;;;;;;10.57;6.73;;;25.20;99.90;;;;;;10337890;28;20266;-81
2023/09/11 16:56:02;;;;;;;8.30;7.40;;;25.20;99.20;;;;;;10368921;28;20199;-81
2023/09/11 17:01:05;;;;;;;9.40;8.53;;;25.20;99.50;;;;;;10356450;28;20679;-81
2023/09/11 17:06:07;;;;;;;8.23;7.20;;;25.10;99.90;;;;;;10350756;28;20219;-81
2023/09/11 17:11:10;;;;;;;9.53;6.70;;;25.10;99.90;;;;;;10386970;28;20294;-81
2023/09/11 17:16:12;;;;;;;9.07;8.17;;;25.10;99.90;;;;;;10349997;28;20587;-81
2023/09/11 17:21:15;;;;;;;8.53;7.43;;;25.00;99.90;;;;;;10330155;28;20629;-81
2023/09/11 17:26:18;;;;;;;8.60;7.77;;;25.00;99.90;;;;;;10347424;28;20210;-81
2023/09/11 17:31:20;;;;;;;10.27;7.67;;;24.80;99.90;;;;;;10354014;28;20294;-81
2023/09/11 17:36:22;;;;;;;8.33;7.30;;;24.70;99.90;;;;;;10363991;28;20204;-81
2023/09/11 17:41:26;;;;;;;8.47;7.67;;;24.60;99.90;;;;;;10381650;28;20235;-81
2023/09/11 17:46:28;;;;;;;9.47;7.93;;;24.50;99.90;;;;;;10368517;28;20204;-80
2023/09/11 17:51:30;;;;;;;8.37;7.57;;;24.50;99.90;;;;;;10379590;28;20239;-81
2023/09/11 17:56:34;;;;;;;8.10;7.37;;;24.40;99.90;;;;;;10350658;28;20215;-81
2023/09/11 18:01:36;;;;;;;9.30;7.60;;;24.30;99.90;;;;;;10333952;28;20223;-81
2023/09/11 18:06:39;;;;;;;9.20;7.60;;;24.20;99.90;;;;;;10360657;28;20198;-81
2023/09/11 18:11:43;;;;;;;8.63;7.93;;;24.10;99.90;;;;;;10378196;28;20238;-80
2023/09/11 18:16:45;;;;;;;9.83;8.10;;;24.10;99.90;;;;;;10368018;28;20228;-81
2023/09/11 18:21:47;;;;;;;8.57;7.70;;;24.00;99.90;;;;;;10353007;28;20576;-81
2023/09/11 18:26:50;;;;;;;10.80;6.73;;;24.00;99.90;;;;;;10330880;28;20214;-81
2023/09/11 18:31:53;;;;;;;8.53;7.73;;;23.90;99.90;;;;;;10354044;28;20219;-81
2023/09/11 18:36:55;;;;;;;7.83;7.23;;;23.90;99.90;;;;;;10358076;28;20218;-81
2023/09/11 18:42:00;;;;;;;8.30;7.60;;;23.80;99.90;;;;;;10373144;28;20223;-81
2023/09/11 18:47:02;;;;;;;10.87;7.47;;;23.80;99.90;;;;;;10373186;28;20202;-81
2023/09/11 18:52:05;;;;;;;9.93;7.50;;;23.70;99.90;;;;;;10371300;28;20219;-81
2023/09/11 18:57:09;;;;;;;10.63;8.07;;;23.70;99.90;;;;;;10371073;28;20212;-80
2023/09/11 19:02:11;;;;;;;10.33;7.40;;;23.70;99.90;;;;;;10339116;28;20220;-81
2023/09/11 19:07:13;;;;;;;9.10;8.20;;;23.70;99.90;;;;;;10356331;28;20215;-80
2023/09/11 19:12:17;;;;;;;10.50;7.50;;;23.70;99.90;;;;;;10368671;28;20250;-81
2023/09/11 19:17:19;;;;;;;7.70;7.00;;;23.70;99.90;;;;;;10372202;28;20208;-80
2023/09/11 19:22:23;;;;;;;8.10;7.10;;;23.70;99.90;;;;;;10377751;28;20623;-80
2023/09/11 19:27:27;;;;;;;8.07;7.27;;;23.60;99.90;;;;;;10338522;28;20204;-81
2023/09/11 19:32:29;;;;;;;9.00;7.10;;;23.60;99.90;;;;;;10359053;28;20307;-81
2023/09/11 19:37:31;;;;;;;12.57;9.30;;;23.50;99.90;;;;;;10353602;28;20727;-80
2023/09/11 19:42:35;;;;;;;8.30;7.50;;;23.50;99.90;;;;;;10360493;28;20696;-81
2023/09/11 19:47:37;;;;;;;8.57;7.63;;;23.40;99.90;;;;;;10378471;28;20199;-79
2023/09/11 19:52:39;;;;;;;12.57;8.63;;;23.40;99.90;;;;;;10345910;28;20781;-81
2023/09/11 19:57:43;;;;;;;10.80;6.50;;;23.40;99.90;;;;;;10375806;28;20224;-81
2023/09/11 20:02:45;;;;;;;8.17;7.37;;;23.30;99.90;;;;;;10366619;28;20607;-81
2023/09/11 20:07:49;;;;;;;8.17;7.47;;;23.30;99.90;;;;;;10357528;28;20199;-81
2023/09/11 20:12:52;;;;;;;9.80;7.30;;;23.30;99.90;;;;;;10361816;28;20241;-81
2023/09/11 20:17:54;;;;;;;8.17;7.37;;;23.30;99.90;;;;;;10379496;28;20235;-81
2023/09/11 20:22:56;;;;;;;8.50;7.80;;;23.20;99.90;;;;;;10363833;28;20241;-81
2023/09/11 20:28:00;;;;;;;10.77;7.00;;;23.20;99.90;;;;;;10379549;28;20220;-80
2023/09/11 20:33:02;;;;;;;12.23;8.80;;;23.20;99.90;;;;;;10370523;28;20712;-81
2023/09/11 20:38:04;;;;;;;10.60;9.30;;;23.10;99.90;;;;;;10321463;28;20254;-81
2023/09/11 20:43:08;;;;;;;11.43;8.00;;;23.00;99.90;;;;;;10361622;28;20211;-81
2023/09/11 20:48:10;;;;;;;14.83;9.40;;;23.00;99.90;;;;;;10381913;28;20608;-81
2023/09/11 20:53:12;;;;;;;8.93;8.07;;;23.00;99.90;;;;;;10359789;28;20223;-81
2023/09/11 20:58:15;;;;;;;8.87;8.10;;;22.90;99.90;;;;;;10382679;28;20219;-81
2023/09/11 21:03:18;;;;;;;10.40;7.37;;;22.80;99.90;;;;;;10358243;28;20579;-81
2023/09/11 21:08:20;;;;;;;11.63;8.17;;;22.80;99.90;;;;;;10346709;28;20196;-81
2023/09/11 21:13:25;;;;;;;8.23;7.40;;;22.80;99.90;;;;;;10374283;28;20694;-81
2023/09/11 21:18:27;;;;;;;16.63;9.53;;;22.80;99.90;;;;;;10350456;28;20594;-80
2023/09/11 21:23:29;;;;;;;8.47;7.53;;;22.80;99.90;;;;;;10354470;28;20211;-80
2023/09/11 21:28:32;;;;;;;10.80;7.43;;;22.70;99.90;;;;;;10377603;28;20742;-80
2023/09/11 21:33:34;;;;;;;8.17;7.47;;;22.70;99.90;;;;;;10353590;28;20215;-80
2023/09/11 21:38:37;;;;;;;10.53;7.80;;;22.70;99.90;;;;;;10359265;28;20710;-80
2023/09/11 21:43:42;;;;;;;8.33;7.53;;;22.60;99.90;;;;;;10333474;28;20222;-81
2023/09/11 21:48:44;;;;;;;8.80;7.90;;;22.60;99.90;;;;;;10369666;28;20191;-80
2023/09/11 21:53:46;;;;;;;8.17;7.47;;;22.60;99.90;;;;;;10350310;28;20219;-81
2023/09/11 21:58:49;;;;;;;10.80;9.43;;;22.50;99.90;;;;;;10383764;28;20648;-80
2023/09/11 22:03:51;;;;;;;8.43;6.90;;;22.50;99.90;;;;;;10330127;28;20230;-80
2023/09/11 22:08:54;;;;;;;10.77;7.23;;;22.40;99.90;;;;;;10364383;28;20282;-80
2023/09/11 22:13:57;;;;;;;8.47;7.33;;;22.40;99.90;;;;;;10360597;28;20235;-80
2023/09/11 22:18:59;;;;;;;9.83;8.10;;;22.40;99.90;;;;;;10344652;28;20223;-80
2023/09/11 22:24:01;;;;;;;10.60;7.97;;;22.30;99.90;;;;;;10373630;28;20277;-79
2023/09/11 22:29:05;;;;;;;8.73;7.87;;;22.30;99.90;;;;;;10343515;28;20227;-80
2023/09/11 22:34:07;;;;;;;9.03;8.20;;;22.30;99.90;;;;;;10326627;28;20211;-80
2023/09/11 22:39:09;;;;;;;13.43;9.63;;;22.20;99.90;;;;;;10381811;28;20627;-80
2023/09/11 22:44:12;;;;;;;11.67;8.07;;;22.20;99.90;;;;;;10378413;28;20211;-80
2023/09/11 22:49:15;;;;;;;10.03;8.20;;;22.20;99.90;;;;;;10345428;28;20210;-79
2023/09/11 22:54:17;;;;;;;9.80;8.03;;;22.10;99.90;;;;;;10302292;28;20214;-80
2023/09/11 22:59:20;;;;;;;9.50;7.90;;;22.10;99.90;;;;;;10364101;28;20263;-80
2023/09/11 23:04:22;;;;;;;8.83;8.03;;;22.10;99.90;;;;;;10324780;28;20207;-80
2023/09/11 23:09:24;;;;;;;9.80;8.53;;;22.00;99.90;;;;;;10379273;28;20199;-80
2023/09/11 23:14:28;;;;;;;8.00;7.30;;;22.00;99.90;;;;;;10380733;28;20199;-81
2023/09/11 23:19:30;;;;;;;11.13;9.07;;;22.00;99.90;;;;;;10344136;28;20219;-80
2023/09/11 23:24:32;;;;;;;9.00;8.20;;;22.00;99.90;;;;;;10350805;28;20270;-80
2023/09/11 23:29:35;;;;;;;8.53;7.40;;;22.00;99.90;;;;;;10369166;28;20282;-80
2023/09/11 23:34:37;;;;;;;11.03;7.77;;;21.90;99.90;;;;;;10333877;28;20206;-80
2023/09/11 23:39:39;;;;;;;9.17;8.47;;;21.90;99.90;;;;;;10364596;28;20231;-80
2023/09/11 23:44:43;;;;;;;11.53;8.20;;;21.90;99.90;;;;;;10333528;28;20227;-80
2023/09/11 23:49:45;;;;;;;10.73;7.93;;;21.80;99.90;;;;;;10361688;28;20215;-79
2023/09/11 23:54:47;;;;;;;9.70;8.30;;;21.80;99.90;;;;;;10359162;28;20709;-80
2023/09/11 23:59:50;;;;;;;11.63;8.43;;;21.80;99.90;;;;;;10376856;28;20223;-80
